sensor_id;sensor_type;location;lat;lon;timestamp;P1;durP1;ratioP1;P2;durP2;ratioP2
3401;SDS011;1714;49.756;8.610;2023-04-07T03:32:05;7.88;;;6.40;;
3401;SDS011;1714;49.756;8.610;2023-04-07T03:42:41;9.90;;;6.72;;
3401;SDS011;1714;49.756;8.610;2023-04-07T03:53:19;12.90;;;7.70;;
3401;SDS011;1714;49.756;8.610;2023-04-07T04:03:57;8.70;;;6.75;;
3401;SDS011;1714;49.756;8.610;2023-04-07T04:14:37;8.98;;;6.82;;
3401;SDS011;1714;49.756;8.610;2023-04-07T04:25:15;8.68;;;6.63;;
3401;SDS011;1714;49.756;8.610;2023-04-07T04:35:55;9.65;;;6.97;;
3401;SDS011;1714;49.756;8.610;2023-04-07T04:46:33;9.57;;;7.30;;
3401;SDS011;1714;49.756;8.610;2023-04-07T04:57:09;10.43;;;6.97;;
3401;SDS011;1714;49.756;8.610;2023-04-07T05:07:45;9.77;;;7.05;;
3401;SDS011;1714;49.756;8.610;2023-04-07T05:18:23;14.35;;;7.53;;
3401;SDS011;1714;49.756;8.610;2023-04-07T05:28:59;11.30;;;7.45;;
3401;SDS011;1714;49.756;8.610;2023-04-07T05:39:36;9.27;;;7.63;;
3401;SDS011;1714;49.756;8.610;2023-04-07T05:50:17;10.18;;;7.03;;
3401;SDS011;1714;49.756;8.610;2023-04-07T06:11:30;14.73;;;8.15;;
3401;SDS011;1714;49.756;8.610;2023-04-07T06:22:06;9.63;;;7.05;;
3401;SDS011;1714;49.756;8.610;2023-04-07T06:32:42;9.05;;;7.20;;
3401;SDS011;1714;49.756;8.610;2023-04-07T06:43:18;13.38;;;6.63;;
3401;SDS011;1714;49.756;8.610;2023-04-07T06:54:02;10.43;;;6.55;;
3401;SDS011;1714;49.756;8.610;2023-04-07T07:04:39;12.05;;;7.10;;
3401;SDS011;1714;49.756;8.610;2023-04-07T07:15:15;11.48;;;6.97;;
3401;SDS011;1714;49.756;8.610;2023-04-07T07:25:52;12.75;;;7.90;;
3401;SDS011;1714;49.756;8.610;2023-04-07T07:36:27;13.95;;;8.30;;
3401;SDS011;1714;49.756;8.610;2023-04-07T07:47:03;12.75;;;7.65;;
3401;SDS011;1714;49.756;8.610;2023-04-07T07:57:39;12.50;;;7.57;;
3401;SDS011;1714;49.756;8.610;2023-04-07T08:08:15;12.70;;;8.95;;
3401;SDS011;1714;49.756;8.610;2023-04-07T08:18:51;14.63;;;7.57;;
3401;SDS011;1714;49.756;8.610;2023-04-07T08:29:26;11.88;;;8.45;;
3401;SDS011;1714;49.756;8.610;2023-04-07T08:40:04;13.30;;;8.30;;
3401;SDS011;1714;49.756;8.610;2023-04-07T08:50:41;18.10;;;7.93;;
3401;SDS011;1714;49.756;8.610;2023-04-07T09:01:22;14.70;;;9.23;;
3401;SDS011;1714;49.756;8.610;2023-04-07T09:12:01;10.98;;;7.55;;
3401;SDS011;1714;49.756;8.610;2023-04-07T09:22:38;13.75;;;7.68;;
3401;SDS011;1714;49.756;8.610;2023-04-07T09:33:26;11.07;;;7.57;;
3401;SDS011;1714;49.756;8.610;2023-04-07T09:44:02;11.57;;;7.40;;
3401;SDS011;1714;49.756;8.610;2023-04-07T09:54:38;12.35;;;7.05;;
3401;SDS011;1714;49.756;8.610;2023-04-07T10:05:15;11.13;;;6.00;;
3401;SDS011;1714;49.756;8.610;2023-04-07T10:15:52;6.28;;;5.28;;
3401;SDS011;1714;49.756;8.610;2023-04-07T10:26:29;7.30;;;5.05;;
3401;SDS011;1714;49.756;8.610;2023-04-07T10:37:11;8.03;;;6.37;;
3401;SDS011;1714;49.756;8.610;2023-04-07T10:58:34;8.70;;;5.70;;
3401;SDS011;1714;49.756;8.610;2023-04-07T11:09:17;10.27;;;6.72;;
3401;SDS011;1714;49.756;8.610;2023-04-07T11:19:54;11.82;;;8.02;;
3401;SDS011;1714;49.756;8.610;2023-04-07T11:30:31;15.13;;;8.40;;
3401;SDS011;1714;49.756;8.610;2023-04-07T11:41:11;9.63;;;7.95;;
3401;SDS011;1714;49.756;8.610;2023-04-07T11:52:00;8.18;;;6.82;;
3401;SDS011;1714;49.756;8.610;2023-04-07T12:02:37;11.35;;;6.65;;
3401;SDS011;1714;49.756;8.610;2023-04-07T12:13:13;5.20;;;4.25;;
3401;SDS011;1714;49.756;8.610;2023-04-07T12:23:49;13.40;;;8.02;;
3401;SDS011;1714;49.756;8.610;2023-04-07T12:34:25;6.60;;;5.30;;
3401;SDS011;1714;49.756;8.610;2023-04-07T12:45:01;5.03;;;4.00;;
3401;SDS011;1714;49.756;8.610;2023-04-07T12:55:37;6.97;;;5.07;;
3401;SDS011;1714;49.756;8.610;2023-04-07T13:06:14;5.05;;;3.90;;
3401;SDS011;1714;49.756;8.610;2023-04-07T13:16:51;6.20;;;3.72;;
3401;SDS011;1714;49.756;8.610;2023-04-07T13:27:27;4.07;;;3.67;;
3401;SDS011;1714;49.756;8.610;2023-04-07T13:38:03;4.03;;;3.63;;
3401;SDS011;1714;49.756;8.610;2023-04-07T13:48:39;6.63;;;5.00;;
3401;SDS011;1714;49.756;8.610;2023-04-07T13:59:15;6.93;;;5.10;;
3401;SDS011;1714;49.756;8.610;2023-04-07T14:09:51;5.78;;;4.68;;
3401;SDS011;1714;49.756;8.610;2023-04-07T14:20:28;6.97;;;5.68;;
3401;SDS011;1714;49.756;8.610;2023-04-07T14:31:04;4.43;;;3.45;;
3401;SDS011;1714;49.756;8.610;2023-04-07T14:41:40;3.70;;;2.90;;
3401;SDS011;1714;49.756;8.610;2023-04-07T14:52:16;2.63;;;2.28;;
3401;SDS011;1714;49.756;8.610;2023-04-07T15:02:52;2.63;;;2.15;;
3401;SDS011;1714;49.756;8.610;2023-04-07T15:13:28;2.40;;;2.20;;
3401;SDS011;1714;49.756;8.610;2023-04-07T15:24:04;4.45;;;3.40;;
3401;SDS011;1714;49.756;8.610;2023-04-07T15:34:40;3.97;;;3.33;;
3401;SDS011;1714;49.756;8.610;2023-04-07T15:45:16;3.03;;;2.55;;
3401;SDS011;1714;49.756;8.610;2023-04-07T15:55:51;3.35;;;3.05;;
3401;SDS011;1714;49.756;8.610;2023-04-07T16:06:27;4.85;;;3.50;;
3401;SDS011;1714;49.756;8.610;2023-04-07T16:17:03;4.78;;;3.85;;
3401;SDS011;1714;49.756;8.610;2023-04-07T16:27:39;4.85;;;3.60;;
3401;SDS011;1714;49.756;8.610;2023-04-07T16:38:14;2.47;;;2.28;;
3401;SDS011;1714;49.756;8.610;2023-04-07T16:48:50;4.00;;;3.30;;
3401;SDS011;1714;49.756;8.610;2023-04-07T16:59:26;3.85;;;3.30;;
3401;SDS011;1714;49.756;8.610;2023-04-07T17:10:02;5.35;;;4.18;;
3401;SDS011;1714;49.756;8.610;2023-04-07T17:20:38;3.80;;;2.40;;
3401;SDS011;1714;49.756;8.610;2023-04-07T17:31:13;5.15;;;2.40;;
3401;SDS011;1714;49.756;8.610;2023-04-07T17:41:49;2.00;;;1.80;;
3401;SDS011;1714;49.756;8.610;2023-04-07T17:52:25;2.53;;;2.17;;
3401;SDS011;1714;49.756;8.610;2023-04-07T18:03:02;2.13;;;1.92;;
3401;SDS011;1714;49.756;8.610;2023-04-07T18:13:38;3.35;;;2.63;;
3401;SDS011;1714;49.756;8.610;2023-04-07T18:24:14;5.22;;;3.08;;
3401;SDS011;1714;49.756;8.610;2023-04-07T18:34:51;4.50;;;3.83;;
3401;SDS011;1714;49.756;8.610;2023-04-07T18:45:27;3.90;;;2.45;;
3401;SDS011;1714;49.756;8.610;2023-04-07T18:56:03;3.30;;;2.83;;
3401;SDS011;1714;49.756;8.610;2023-04-07T19:06:39;3.75;;;2.50;;
3401;SDS011;1714;49.756;8.610;2023-04-07T19:17:14;3.25;;;2.95;;
3401;SDS011;1714;49.756;8.610;2023-04-07T19:27:50;5.60;;;3.40;;
3401;SDS011;1714;49.756;8.610;2023-04-07T19:38:26;9.30;;;7.20;;
3401;SDS011;1714;49.756;8.610;2023-04-07T19:49:02;17.52;;;10.48;;
3401;SDS011;1714;49.756;8.610;2023-04-07T19:59:37;10.43;;;6.78;;
3401;SDS011;1714;49.756;8.610;2023-04-07T20:10:13;3.88;;;3.03;;
3401;SDS011;1714;49.756;8.610;2023-04-07T20:20:49;3.08;;;2.30;;
3401;SDS011;1714;49.756;8.610;2023-04-07T20:31:33;3.03;;;2.33;;
3401;SDS011;1714;49.756;8.610;2023-04-07T20:42:08;4.40;;;2.55;;
3401;SDS011;1714;49.756;8.610;2023-04-07T20:52:44;4.10;;;3.42;;
3401;SDS011;1714;49.756;8.610;2023-04-07T21:03:20;2.63;;;2.40;;
3401;SDS011;1714;49.756;8.610;2023-04-07T21:13:56;5.93;;;2.83;;
3401;SDS011;1714;49.756;8.610;2023-04-07T21:24:32;7.75;;;3.45;;
